sensor_id;sensor_type;location;lat;lon;timestamp;P1;durP1;ratioP1;P2;durP2;ratioP2
13435;SDS011;6790;49.520;8.504;2022-10-31T00:01:35;9.53;;;5.57;;
13435;SDS011;6790;49.520;8.504;2022-10-31T00:04:03;14.40;;;5.70;;
13435;SDS011;6790;49.520;8.504;2022-10-31T00:06:29;11.27;;;5.00;;
13435;SDS011;6790;49.520;8.504;2022-10-31T00:08:56;14.63;;;5.13;;
13435;SDS011;6790;49.520;8.504;2022-10-31T00:11:26;10.10;;;5.30;;
13435;SDS011;6790;49.520;8.504;2022-10-31T00:13:52;10.03;;;4.97;;
13435;SDS011;6790;49.520;8.504;2022-10-31T00:16:19;9.70;;;5.00;;
13435;SDS011;6790;49.520;8.504;2022-10-31T00:18:47;10.07;;;5.20;;
13435;SDS011;6790;49.520;8.504;2022-10-31T00:21:14;9.20;;;5.47;;
13435;SDS011;6790;49.520;8.504;2022-10-31T00:23:40;7.77;;;4.43;;
13435;SDS011;6790;49.520;8.504;2022-10-31T00:26:06;11.87;;;5.10;;
13435;SDS011;6790;49.520;8.504;2022-10-31T00:28:32;13.13;;;4.93;;
13435;SDS011;6790;49.520;8.504;2022-10-31T00:31:02;9.53;;;4.67;;
13435;SDS011;6790;49.520;8.504;2022-10-31T00:33:30;9.10;;;4.87;;
13435;SDS011;6790;49.520;8.504;2022-10-31T00:35:58;8.57;;;4.57;;
13435;SDS011;6790;49.520;8.504;2022-10-31T00:38:24;10.40;;;5.03;;
13435;SDS011;6790;49.520;8.504;2022-10-31T00:40:50;9.77;;;4.10;;
13435;SDS011;6790;49.520;8.504;2022-10-31T00:43:15;10.93;;;4.87;;
13435;SDS011;6790;49.520;8.504;2022-10-31T00:45:41;9.80;;;5.07;;
13435;SDS011;6790;49.520;8.504;2022-10-31T00:48:08;10.27;;;5.00;;
13435;SDS011;6790;49.520;8.504;2022-10-31T00:50:34;9.43;;;4.90;;
13435;SDS011;6790;49.520;8.504;2022-10-31T00:53:00;10.53;;;4.47;;
13435;SDS011;6790;49.520;8.504;2022-10-31T00:55:25;8.77;;;4.87;;
13435;SDS011;6790;49.520;8.504;2022-10-31T00:57:51;8.60;;;4.43;;
13435;SDS011;6790;49.520;8.504;2022-10-31T01:00:17;9.27;;;3.90;;
13435;SDS011;6790;49.520;8.504;2022-10-31T01:02:42;10.37;;;5.00;;
13435;SDS011;6790;49.520;8.504;2022-10-31T01:05:08;6.10;;;4.33;;
13435;SDS011;6790;49.520;8.504;2022-10-31T01:07:37;9.37;;;4.43;;
13435;SDS011;6790;49.520;8.504;2022-10-31T01:10:05;10.97;;;4.33;;
13435;SDS011;6790;49.520;8.504;2022-10-31T01:12:38;8.47;;;5.13;;
13435;SDS011;6790;49.520;8.504;2022-10-31T01:15:06;8.23;;;4.27;;
13435;SDS011;6790;49.520;8.504;2022-10-31T01:17:33;7.43;;;4.43;;
13435;SDS011;6790;49.520;8.504;2022-10-31T01:19:59;6.77;;;4.47;;
13435;SDS011;6790;49.520;8.504;2022-10-31T01:22:24;12.93;;;5.10;;
13435;SDS011;6790;49.520;8.504;2022-10-31T01:24:50;8.60;;;5.13;;
13435;SDS011;6790;49.520;8.504;2022-10-31T01:27:16;5.93;;;4.47;;
13435;SDS011;6790;49.520;8.504;2022-10-31T01:29:41;9.97;;;3.93;;
13435;SDS011;6790;49.520;8.504;2022-10-31T01:32:07;11.60;;;5.20;;
13435;SDS011;6790;49.520;8.504;2022-10-31T01:34:32;6.33;;;4.90;;
13435;SDS011;6790;49.520;8.504;2022-10-31T01:37:00;11.57;;;4.57;;
13435;SDS011;6790;49.520;8.504;2022-10-31T01:39:25;10.30;;;4.90;;
13435;SDS011;6790;49.520;8.504;2022-10-31T01:41:52;8.33;;;4.77;;
13435;SDS011;6790;49.520;8.504;2022-10-31T01:46:51;9.77;;;4.37;;
13435;SDS011;6790;49.520;8.504;2022-10-31T01:52:12;8.03;;;4.50;;
13435;SDS011;6790;49.520;8.504;2022-10-31T01:58:02;5.83;;;4.13;;
13435;SDS011;6790;49.520;8.504;2022-10-31T02:00:33;7.50;;;3.90;;
13435;SDS011;6790;49.520;8.504;2022-10-31T02:02:59;8.60;;;3.97;;
13435;SDS011;6790;49.520;8.504;2022-10-31T02:05:26;13.23;;;4.43;;
13435;SDS011;6790;49.520;8.504;2022-10-31T02:10:48;10.13;;;4.43;;
13435;SDS011;6790;49.520;8.504;2022-10-31T02:13:14;12.80;;;4.57;;
13435;SDS011;6790;49.520;8.504;2022-10-31T02:15:41;10.20;;;4.70;;
13435;SDS011;6790;49.520;8.504;2022-10-31T02:18:09;12.10;;;4.97;;
13435;SDS011;6790;49.520;8.504;2022-10-31T02:23:44;7.83;;;4.63;;
13435;SDS011;6790;49.520;8.504;2022-10-31T02:47:26;9.97;;;4.03;;
13435;SDS011;6790;49.520;8.504;2022-10-31T02:49:59;14.87;;;4.80;;
13435;SDS011;6790;49.520;8.504;2022-10-31T02:52:32;9.27;;;4.77;;
13435;SDS011;6790;49.520;8.504;2022-10-31T02:58:08;7.33;;;4.80;;
13435;SDS011;6790;49.520;8.504;2022-10-31T03:00:49;9.60;;;4.63;;
13435;SDS011;6790;49.520;8.504;2022-10-31T03:09:54;6.87;;;4.10;;
13435;SDS011;6790;49.520;8.504;2022-10-31T03:16:16;8.03;;;4.37;;
13435;SDS011;6790;49.520;8.504;2022-10-31T03:19:00;5.90;;;4.47;;
13435;SDS011;6790;49.520;8.504;2022-10-31T03:21:32;10.07;;;4.97;;
13435;SDS011;6790;49.520;8.504;2022-10-31T03:24:01;8.50;;;4.73;;
13435;SDS011;6790;49.520;8.504;2022-10-31T03:26:28;8.60;;;5.30;;
13435;SDS011;6790;49.520;8.504;2022-10-31T03:28:56;7.70;;;5.10;;
13435;SDS011;6790;49.520;8.504;2022-10-31T03:31:27;10.70;;;4.53;;
13435;SDS011;6790;49.520;8.504;2022-10-31T03:34:02;10.33;;;5.03;;
13435;SDS011;6790;49.520;8.504;2022-10-31T03:36:30;12.13;;;5.17;;
13435;SDS011;6790;49.520;8.504;2022-10-31T03:39:01;13.80;;;5.13;;
13435;SDS011;6790;49.520;8.504;2022-10-31T03:41:31;6.60;;;4.83;;
13435;SDS011;6790;49.520;8.504;2022-10-31T03:44:03;6.47;;;4.40;;
13435;SDS011;6790;49.520;8.504;2022-10-31T03:46:33;6.13;;;4.60;;
13435;SDS011;6790;49.520;8.504;2022-10-31T03:48:59;9.30;;;4.70;;
13435;SDS011;6790;49.520;8.504;2022-10-31T03:51:28;10.67;;;4.93;;
13435;SDS011;6790;49.520;8.504;2022-10-31T03:57:00;13.43;;;4.83;;
13435;SDS011;6790;49.520;8.504;2022-10-31T03:59:42;13.70;;;4.70;;
13435;SDS011;6790;49.520;8.504;2022-10-31T04:02:16;6.43;;;4.67;;
13435;SDS011;6790;49.520;8.504;2022-10-31T04:04:45;9.90;;;5.13;;
13435;SDS011;6790;49.520;8.504;2022-10-31T04:07:13;5.53;;;4.10;;
13435;SDS011;6790;49.520;8.504;2022-10-31T04:09:45;7.40;;;4.53;;
13435;SDS011;6790;49.520;8.504;2022-10-31T04:12:13;9.23;;;4.23;;
13435;SDS011;6790;49.520;8.504;2022-10-31T04:14:41;8.60;;;4.50;;
13435;SDS011;6790;49.520;8.504;2022-10-31T04:17:11;6.57;;;4.40;;
13435;SDS011;6790;49.520;8.504;2022-10-31T04:19:41;11.23;;;4.50;;
13435;SDS011;6790;49.520;8.504;2022-10-31T04:22:06;8.03;;;4.47;;
13435;SDS011;6790;49.520;8.504;2022-10-31T04:24:32;7.27;;;4.60;;
13435;SDS011;6790;49.520;8.504;2022-10-31T04:26:58;8.27;;;4.67;;
13435;SDS011;6790;49.520;8.504;2022-10-31T04:29:23;5.73;;;4.30;;
13435;SDS011;6790;49.520;8.504;2022-10-31T04:31:49;6.80;;;4.47;;
13435;SDS011;6790;49.520;8.504;2022-10-31T04:34:15;9.10;;;5.03;;
13435;SDS011;6790;49.520;8.504;2022-10-31T04:36:41;8.13;;;4.10;;
13435;SDS011;6790;49.520;8.504;2022-10-31T04:39:06;6.87;;;4.33;;
13435;SDS011;6790;49.520;8.504;2022-10-31T04:41:32;6.03;;;4.20;;
13435;SDS011;6790;49.520;8.504;2022-10-31T04:43:57;9.63;;;4.70;;
13435;SDS011;6790;49.520;8.504;2022-10-31T04:46:23;7.63;;;4.40;;
13435;SDS011;6790;49.520;8.504;2022-10-31T04:48:49;12.00;;;4.77;;
13435;SDS011;6790;49.520;8.504;2022-10-31T04:51:14;6.27;;;4.60;;
13435;SDS011;6790;49.520;8.504;2022-10-31T04:53:40;9.03;;;4.27;;
13435;SDS011;6790;49.520;8.504;2022-10-31T04:56:06;5.77;;;4.10;;
13435;SDS011;6790;49.520;8.504;2022-10-31T04:58:32;7.27;;;4.40;;
13435;SDS011;6790;49.520;8.504;2022-10-31T05:00:57;7.63;;;4.50;;
13435;SDS011;6790;49.520;8.504;2022-10-31T05:03:23;8.47;;;5.23;;
13435;SDS011;6790;49.520;8.504;2022-10-31T05:05:49;8.70;;;4.50;;
13435;SDS011;6790;49.520;8.504;2022-10-31T05:08:14;8.27;;;4.50;;
13435;SDS011;6790;49.520;8.504;2022-10-31T05:10:40;9.47;;;4.90;;
13435;SDS011;6790;49.520;8.504;2022-10-31T05:13:06;9.87;;;4.50;;
13435;SDS011;6790;49.520;8.504;2022-10-31T05:15:32;9.43;;;5.07;;
13435;SDS011;6790;49.520;8.504;2022-10-31T05:17:58;11.13;;;4.87;;
13435;SDS011;6790;49.520;8.504;2022-10-31T05:20:26;6.90;;;4.93;;
13435;SDS011;6790;49.520;8.504;2022-10-31T05:22:54;10.70;;;6.00;;
13435;SDS011;6790;49.520;8.504;2022-10-31T05:25:23;9.67;;;4.90;;
13435;SDS011;6790;49.520;8.504;2022-10-31T05:27:51;10.40;;;5.10;;
13435;SDS011;6790;49.520;8.504;2022-10-31T05:30:20;12.87;;;5.23;;
13435;SDS011;6790;49.520;8.504;2022-10-31T05:32:49;9.40;;;5.33;;
13435;SDS011;6790;49.520;8.504;2022-10-31T05:35:23;10.83;;;5.20;;
13435;SDS011;6790;49.520;8.504;2022-10-31T05:37:52;8.23;;;4.90;;
13435;SDS011;6790;49.520;8.504;2022-10-31T05:40:18;8.93;;;5.60;;
13435;SDS011;6790;49.520;8.504;2022-10-31T05:42:45;7.37;;;5.40;;
13435;SDS011;6790;49.520;8.504;2022-10-31T05:45:13;10.43;;;6.10;;
13435;SDS011;6790;49.520;8.504;2022-10-31T05:47:41;8.83;;;5.70;;
13435;SDS011;6790;49.520;8.504;2022-10-31T05:50:08;15.27;;;5.10;;
13435;SDS011;6790;49.520;8.504;2022-10-31T05:52:34;9.57;;;5.60;;
13435;SDS011;6790;49.520;8.504;2022-10-31T05:55:00;14.43;;;5.40;;
13435;SDS011;6790;49.520;8.504;2022-10-31T05:57:26;7.47;;;5.47;;
13435;SDS011;6790;49.520;8.504;2022-10-31T05:59:53;11.73;;;5.03;;
13435;SDS011;6790;49.520;8.504;2022-10-31T06:02:19;8.40;;;5.07;;
13435;SDS011;6790;49.520;8.504;2022-10-31T06:04:45;9.90;;;5.87;;
13435;SDS011;6790;49.520;8.504;2022-10-31T06:07:11;8.70;;;5.50;;
13435;SDS011;6790;49.520;8.504;2022-10-31T06:09:37;11.43;;;5.67;;
13435;SDS011;6790;49.520;8.504;2022-10-31T06:12:02;8.30;;;5.50;;
13435;SDS011;6790;49.520;8.504;2022-10-31T06:14:28;10.63;;;5.27;;
13435;SDS011;6790;49.520;8.504;2022-10-31T06:16:54;12.57;;;5.97;;
13435;SDS011;6790;49.520;8.504;2022-10-31T06:19:20;9.63;;;5.00;;
13435;SDS011;6790;49.520;8.504;2022-10-31T06:21:46;11.70;;;5.23;;
13435;SDS011;6790;49.520;8.504;2022-10-31T06:24:12;10.27;;;5.43;;
13435;SDS011;6790;49.520;8.504;2022-10-31T06:26:38;11.83;;;6.27;;
13435;SDS011;6790;49.520;8.504;2022-10-31T06:29:03;10.30;;;5.37;;
13435;SDS011;6790;49.520;8.504;2022-10-31T06:31:29;13.83;;;5.80;;
13435;SDS011;6790;49.520;8.504;2022-10-31T06:33:55;13.10;;;6.50;;
13435;SDS011;6790;49.520;8.504;2022-10-31T06:36:21;21.77;;;7.40;;
13435;SDS011;6790;49.520;8.504;2022-10-31T06:38:47;14.53;;;7.20;;
13435;SDS011;6790;49.520;8.504;2022-10-31T06:41:12;11.43;;;6.77;;
13435;SDS011;6790;49.520;8.504;2022-10-31T06:43:38;16.50;;;7.50;;
13435;SDS011;6790;49.520;8.504;2022-10-31T06:46:04;17.90;;;7.10;;
13435;SDS011;6790;49.520;8.504;2022-10-31T06:48:31;19.10;;;7.63;;
13435;SDS011;6790;49.520;8.504;2022-10-31T06:50:57;19.27;;;7.57;;
13435;SDS011;6790;49.520;8.504;2022-10-31T06:53:26;11.87;;;7.73;;
13435;SDS011;6790;49.520;8.504;2022-10-31T06:55:55;15.53;;;8.00;;
13435;SDS011;6790;49.520;8.504;2022-10-31T06:58:21;12.73;;;7.90;;
13435;SDS011;6790;49.520;8.504;2022-10-31T07:00:48;16.73;;;6.77;;
13435;SDS011;6790;49.520;8.504;2022-10-31T07:03:14;14.50;;;8.37;;
13435;SDS011;6790;49.520;8.504;2022-10-31T07:05:41;12.37;;;7.73;;
13435;SDS011;6790;49.520;8.504;2022-10-31T07:08:08;11.77;;;7.27;;
13435;SDS011;6790;49.520;8.504;2022-10-31T07:10:37;10.50;;;6.87;;
13435;SDS011;6790;49.520;8.504;2022-10-31T07:13:05;11.17;;;6.83;;
13435;SDS011;6790;49.520;8.504;2022-10-31T07:15:37;14.43;;;7.27;;
13435;SDS011;6790;49.520;8.504;2022-10-31T07:18:04;10.07;;;6.93;;
13435;SDS011;6790;49.520;8.504;2022-10-31T07:20:32;10.50;;;6.63;;
13435;SDS011;6790;49.520;8.504;2022-10-31T07:22:58;11.23;;;7.43;;
13435;SDS011;6790;49.520;8.504;2022-10-31T07:25:25;13.57;;;7.43;;
13435;SDS011;6790;49.520;8.504;2022-10-31T07:27:51;13.57;;;7.67;;
13435;SDS011;6790;49.520;8.504;2022-10-31T07:30:17;14.00;;;7.67;;
13435;SDS011;6790;49.520;8.504;2022-10-31T07:32:44;10.83;;;7.07;;
13435;SDS011;6790;49.520;8.504;2022-10-31T07:35:13;13.20;;;7.03;;
13435;SDS011;6790;49.520;8.504;2022-10-31T07:37:48;10.80;;;7.67;;
13435;SDS011;6790;49.520;8.504;2022-10-31T07:40:13;9.60;;;7.07;;
13435;SDS011;6790;49.520;8.504;2022-10-31T07:42:40;12.27;;;7.57;;
13435;SDS011;6790;49.520;8.504;2022-10-31T07:45:09;10.53;;;7.50;;
13435;SDS011;6790;49.520;8.504;2022-10-31T07:47:40;11.20;;;7.53;;
13435;SDS011;6790;49.520;8.504;2022-10-31T07:50:22;11.60;;;7.23;;
13435;SDS011;6790;49.520;8.504;2022-10-31T07:53:03;9.77;;;7.77;;
13435;SDS011;6790;49.520;8.504;2022-10-31T07:55:31;9.37;;;7.30;;
13435;SDS011;6790;49.520;8.504;2022-10-31T07:57:58;10.33;;;7.37;;
13435;SDS011;6790;49.520;8.504;2022-10-31T08:00:26;14.67;;;7.93;;
13435;SDS011;6790;49.520;8.504;2022-10-31T08:03:02;10.73;;;8.07;;
13435;SDS011;6790;49.520;8.504;2022-10-31T08:05:31;10.87;;;7.47;;
13435;SDS011;6790;49.520;8.504;2022-10-31T08:07:58;13.03;;;8.20;;
13435;SDS011;6790;49.520;8.504;2022-10-31T08:10:24;11.27;;;7.57;;
13435;SDS011;6790;49.520;8.504;2022-10-31T08:12:55;13.93;;;7.70;;
13435;SDS011;6790;49.520;8.504;2022-10-31T08:15:29;9.27;;;7.30;;
13435;SDS011;6790;49.520;8.504;2022-10-31T08:17:55;10.73;;;7.40;;
13435;SDS011;6790;49.520;8.504;2022-10-31T08:20:21;9.30;;;7.63;;
13435;SDS011;6790;49.520;8.504;2022-10-31T08:22:57;11.97;;;8.07;;
13435;SDS011;6790;49.520;8.504;2022-10-31T08:25:25;11.07;;;7.57;;
13435;SDS011;6790;49.520;8.504;2022-10-31T08:27:53;12.63;;;7.53;;
13435;SDS011;6790;49.520;8.504;2022-10-31T08:30:20;11.37;;;7.63;;
13435;SDS011;6790;49.520;8.504;2022-10-31T08:32:56;9.23;;;7.53;;
13435;SDS011;6790;49.520;8.504;2022-10-31T08:35:27;10.10;;;6.97;;
13435;SDS011;6790;49.520;8.504;2022-10-31T08:37:53;8.57;;;6.80;;
13435;SDS011;6790;49.520;8.504;2022-10-31T08:40:20;9.83;;;8.00;;
13435;SDS011;6790;49.520;8.504;2022-10-31T08:42:46;13.07;;;7.30;;
13435;SDS011;6790;49.520;8.504;2022-10-31T08:45:12;8.30;;;7.10;;
13435;SDS011;6790;49.520;8.504;2022-10-31T08:47:38;10.37;;;7.43;;
13435;SDS011;6790;49.520;8.504;2022-10-31T08:50:03;14.87;;;7.90;;
13435;SDS011;6790;49.520;8.504;2022-10-31T08:52:29;12.07;;;8.03;;
13435;SDS011;6790;49.520;8.504;2022-10-31T08:54:55;11.03;;;8.20;;
13435;SDS011;6790;49.520;8.504;2022-10-31T08:57:21;13.23;;;7.53;;
13435;SDS011;6790;49.520;8.504;2022-10-31T08:59:46;12.70;;;8.13;;
13435;SDS011;6790;49.520;8.504;2022-10-31T09:02:12;17.53;;;9.63;;
13435;SDS011;6790;49.520;8.504;2022-10-31T09:04:38;16.43;;;9.93;;
13435;SDS011;6790;49.520;8.504;2022-10-31T09:07:03;13.63;;;9.17;;
13435;SDS011;6790;49.520;8.504;2022-10-31T09:09:29;11.97;;;8.63;;
13435;SDS011;6790;49.520;8.504;2022-10-31T09:11:55;12.03;;;8.00;;
13435;SDS011;6790;49.520;8.504;2022-10-31T09:14:20;16.50;;;8.90;;
13435;SDS011;6790;49.520;8.504;2022-10-31T09:16:46;13.03;;;8.60;;
13435;SDS011;6790;49.520;8.504;2022-10-31T09:19:12;14.00;;;8.93;;
13435;SDS011;6790;49.520;8.504;2022-10-31T09:21:37;13.20;;;8.63;;
13435;SDS011;6790;49.520;8.504;2022-10-31T09:24:03;11.90;;;8.37;;
13435;SDS011;6790;49.520;8.504;2022-10-31T09:26:29;12.73;;;8.13;;
13435;SDS011;6790;49.520;8.504;2022-10-31T09:28:55;14.70;;;7.67;;
13435;SDS011;6790;49.520;8.504;2022-10-31T09:31:22;16.43;;;7.97;;
13435;SDS011;6790;49.520;8.504;2022-10-31T09:33:48;11.97;;;8.13;;
13435;SDS011;6790;49.520;8.504;2022-10-31T09:36:14;14.70;;;8.47;;
13435;SDS011;6790;49.520;8.504;2022-10-31T09:38:39;11.83;;;8.40;;
13435;SDS011;6790;49.520;8.504;2022-10-31T09:49:24;11.70;;;8.40;;
13435;SDS011;6790;49.520;8.504;2022-10-31T09:52:26;12.87;;;8.27;;
13435;SDS011;6790;49.520;8.504;2022-10-31T09:55:00;12.90;;;8.57;;
13435;SDS011;6790;49.520;8.504;2022-10-31T09:57:34;11.60;;;8.57;;
13435;SDS011;6790;49.520;8.504;2022-10-31T10:00:03;14.33;;;9.97;;
13435;SDS011;6790;49.520;8.504;2022-10-31T10:05:17;14.93;;;8.90;;
13435;SDS011;6790;49.520;8.504;2022-10-31T10:08:12;12.77;;;8.60;;
13435;SDS011;6790;49.520;8.504;2022-10-31T10:10:51;13.47;;;8.63;;
13435;SDS011;6790;49.520;8.504;2022-10-31T10:22:29;14.30;;;8.57;;
13435;SDS011;6790;49.520;8.504;2022-10-31T10:30:41;11.97;;;8.40;;
13435;SDS011;6790;49.520;8.504;2022-10-31T10:33:22;12.10;;;8.07;;
13435;SDS011;6790;49.520;8.504;2022-10-31T10:35:58;17.53;;;8.37;;
13435;SDS011;6790;49.520;8.504;2022-10-31T10:38:34;15.27;;;7.40;;
13435;SDS011;6790;49.520;8.504;2022-10-31T10:41:23;13.33;;;8.17;;
13435;SDS011;6790;49.520;8.504;2022-10-31T10:43:56;10.93;;;7.73;;
13435;SDS011;6790;49.520;8.504;2022-10-31T10:46:41;9.63;;;7.70;;
13435;SDS011;6790;49.520;8.504;2022-10-31T10:49:44;11.33;;;7.70;;
13435;SDS011;6790;49.520;8.504;2022-10-31T10:57:37;10.97;;;7.33;;
13435;SDS011;6790;49.520;8.504;2022-10-31T11:00:21;10.07;;;7.50;;
13435;SDS011;6790;49.520;8.504;2022-10-31T11:02:51;15.10;;;8.00;;
13435;SDS011;6790;49.520;8.504;2022-10-31T11:05:33;10.97;;;7.87;;
13435;SDS011;6790;49.520;8.504;2022-10-31T11:08:35;11.93;;;8.10;;
13435;SDS011;6790;49.520;8.504;2022-10-31T11:11:02;14.80;;;7.13;;
13435;SDS011;6790;49.520;8.504;2022-10-31T11:13:35;10.00;;;7.53;;
13435;SDS011;6790;49.520;8.504;2022-10-31T11:16:13;10.90;;;7.40;;
13435;SDS011;6790;49.520;8.504;2022-10-31T11:18:53;11.03;;;7.40;;
13435;SDS011;6790;49.520;8.504;2022-10-31T11:21:30;9.97;;;7.37;;
13435;SDS011;6790;49.520;8.504;2022-10-31T11:26:38;10.00;;;7.60;;
13435;SDS011;6790;49.520;8.504;2022-10-31T11:31:44;12.57;;;7.95;;
13435;SDS011;6790;49.520;8.504;2022-10-31T11:36:53;9.60;;;6.97;;
13435;SDS011;6790;49.520;8.504;2022-10-31T11:39:23;13.07;;;8.23;;
13435;SDS011;6790;49.520;8.504;2022-10-31T11:41:50;14.93;;;7.77;;
13435;SDS011;6790;49.520;8.504;2022-10-31T11:44:18;13.27;;;7.70;;
13435;SDS011;6790;49.520;8.504;2022-10-31T11:46:52;10.97;;;7.30;;
13435;SDS011;6790;49.520;8.504;2022-10-31T11:49:36;11.77;;;8.23;;
13435;SDS011;6790;49.520;8.504;2022-10-31T11:54:57;11.87;;;7.73;;
13435;SDS011;6790;49.520;8.504;2022-10-31T11:59:59;15.03;;;7.90;;
13435;SDS011;6790;49.520;8.504;2022-10-31T12:02:30;9.03;;;7.40;;
13435;SDS011;6790;49.520;8.504;2022-10-31T12:05:29;11.57;;;7.17;;
13435;SDS011;6790;49.520;8.504;2022-10-31T12:07:54;11.77;;;6.67;;
13435;SDS011;6790;49.520;8.504;2022-10-31T12:10:20;12.45;;;7.07;;
13435;SDS011;6790;49.520;8.504;2022-10-31T12:16:03;14.20;;;7.53;;
13435;SDS011;6790;49.520;8.504;2022-10-31T12:30:00;11.18;;;8.65;;
13435;SDS011;6790;49.520;8.504;2022-10-31T12:33:01;12.10;;;7.50;;
13435;SDS011;6790;49.520;8.504;2022-10-31T12:39:20;15.15;;;8.20;;
13435;SDS011;6790;49.520;8.504;2022-10-31T12:45:56;16.70;;;7.77;;
13435;SDS011;6790;49.520;8.504;2022-10-31T12:54:38;11.93;;;8.13;;
13435;SDS011;6790;49.520;8.504;2022-10-31T13:00:19;12.53;;;8.77;;
13435;SDS011;6790;49.520;8.504;2022-10-31T13:02:56;14.80;;;8.13;;
13435;SDS011;6790;49.520;8.504;2022-10-31T13:05:41;14.97;;;8.50;;
13435;SDS011;6790;49.520;8.504;2022-10-31T13:10:44;13.47;;;8.10;;
13435;SDS011;6790;49.520;8.504;2022-10-31T13:13:41;15.07;;;9.90;;
13435;SDS011;6790;49.520;8.504;2022-10-31T13:16:18;15.55;;;9.00;;
13435;SDS011;6790;49.520;8.504;2022-10-31T13:18:56;13.60;;;8.20;;
13435;SDS011;6790;49.520;8.504;2022-10-31T13:24:13;12.77;;;8.00;;
13435;SDS011;6790;49.520;8.504;2022-10-31T13:26:52;12.40;;;7.63;;
13435;SDS011;6790;49.520;8.504;2022-10-31T13:32:04;15.60;;;7.90;;
13435;SDS011;6790;49.520;8.504;2022-10-31T13:37:11;12.03;;;7.73;;
13435;SDS011;6790;49.520;8.504;2022-10-31T13:45:27;12.63;;;7.50;;
13435;SDS011;6790;49.520;8.504;2022-10-31T13:48:01;18.20;;;10.63;;
13435;SDS011;6790;49.520;8.504;2022-10-31T13:50:39;24.13;;;13.55;;
13435;SDS011;6790;49.520;8.504;2022-10-31T13:53:13;15.30;;;8.47;;
13435;SDS011;6790;49.520;8.504;2022-10-31T13:55:49;13.47;;;8.30;;
13435;SDS011;6790;49.520;8.504;2022-10-31T13:58:29;10.80;;;7.57;;
13435;SDS011;6790;49.520;8.504;2022-10-31T14:00:59;11.70;;;7.50;;
13435;SDS011;6790;49.520;8.504;2022-10-31T14:03:41;12.90;;;6.93;;
13435;SDS011;6790;49.520;8.504;2022-10-31T14:06:11;15.50;;;8.13;;
13435;SDS011;6790;49.520;8.504;2022-10-31T14:08:39;13.63;;;8.40;;
13435;SDS011;6790;49.520;8.504;2022-10-31T14:11:24;15.30;;;8.18;;
13435;SDS011;6790;49.520;8.504;2022-10-31T14:13:52;24.10;;;8.98;;
13435;SDS011;6790;49.520;8.504;2022-10-31T14:16:26;15.80;;;8.50;;
13435;SDS011;6790;49.520;8.504;2022-10-31T14:19:02;16.67;;;9.23;;
13435;SDS011;6790;49.520;8.504;2022-10-31T14:21:41;20.48;;;10.27;;
13435;SDS011;6790;49.520;8.504;2022-10-31T14:29:21;18.73;;;11.23;;
13435;SDS011;6790;49.520;8.504;2022-10-31T14:31:53;16.88;;;11.55;;
13435;SDS011;6790;49.520;8.504;2022-10-31T14:34:38;18.47;;;10.73;;
13435;SDS011;6790;49.520;8.504;2022-10-31T14:39:41;21.97;;;12.17;;
13435;SDS011;6790;49.520;8.504;2022-10-31T14:51:12;18.87;;;10.30;;
13435;SDS011;6790;49.520;8.504;2022-10-31T14:53:53;15.17;;;10.13;;
13435;SDS011;6790;49.520;8.504;2022-10-31T14:56:24;20.10;;;10.33;;
13435;SDS011;6790;49.520;8.504;2022-10-31T14:58:55;15.70;;;9.53;;
13435;SDS011;6790;49.520;8.504;2022-10-31T15:01:25;18.80;;;9.97;;
13435;SDS011;6790;49.520;8.504;2022-10-31T15:03:55;15.80;;;9.30;;
13435;SDS011;6790;49.520;8.504;2022-10-31T15:06:29;15.90;;;11.33;;
13435;SDS011;6790;49.520;8.504;2022-10-31T15:09:25;16.63;;;9.90;;
13435;SDS011;6790;49.520;8.504;2022-10-31T15:14:51;16.13;;;9.53;;
13435;SDS011;6790;49.520;8.504;2022-10-31T15:17:17;15.47;;;10.27;;
13435;SDS011;6790;49.520;8.504;2022-10-31T15:19:44;15.77;;;9.63;;
13435;SDS011;6790;49.520;8.504;2022-10-31T15:22:13;19.17;;;10.27;;
13435;SDS011;6790;49.520;8.504;2022-10-31T15:24:42;17.33;;;10.27;;
13435;SDS011;6790;49.520;8.504;2022-10-31T15:27:15;17.87;;;11.30;;
13435;SDS011;6790;49.520;8.504;2022-10-31T15:29:52;18.03;;;10.00;;
13435;SDS011;6790;49.520;8.504;2022-10-31T15:34:53;27.67;;;17.40;;
13435;SDS011;6790;49.520;8.504;2022-10-31T15:37:24;30.67;;;18.67;;
13435;SDS011;6790;49.520;8.504;2022-10-31T15:39:51;15.77;;;10.30;;
13435;SDS011;6790;49.520;8.504;2022-10-31T15:44:56;16.53;;;10.93;;
13435;SDS011;6790;49.520;8.504;2022-10-31T15:47:29;17.00;;;10.93;;
13435;SDS011;6790;49.520;8.504;2022-10-31T15:49:57;16.93;;;9.87;;
13435;SDS011;6790;49.520;8.504;2022-10-31T15:57:38;20.63;;;10.67;;
13435;SDS011;6790;49.520;8.504;2022-10-31T16:00:20;24.23;;;14.23;;
13435;SDS011;6790;49.520;8.504;2022-10-31T16:02:49;27.07;;;15.80;;
13435;SDS011;6790;49.520;8.504;2022-10-31T16:05:16;13.57;;;9.10;;
13435;SDS011;6790;49.520;8.504;2022-10-31T16:07:51;14.10;;;8.40;;
13435;SDS011;6790;49.520;8.504;2022-10-31T16:10:21;10.00;;;7.17;;
13435;SDS011;6790;49.520;8.504;2022-10-31T16:12:50;14.77;;;8.33;;
13435;SDS011;6790;49.520;8.504;2022-10-31T16:15:17;12.50;;;7.67;;
13435;SDS011;6790;49.520;8.504;2022-10-31T16:17:47;15.07;;;8.70;;
13435;SDS011;6790;49.520;8.504;2022-10-31T16:20:18;18.80;;;11.30;;
13435;SDS011;6790;49.520;8.504;2022-10-31T16:22:48;15.70;;;8.47;;
13435;SDS011;6790;49.520;8.504;2022-10-31T16:25:16;15.40;;;8.47;;
13435;SDS011;6790;49.520;8.504;2022-10-31T16:27:54;11.13;;;7.73;;
13435;SDS011;6790;49.520;8.504;2022-10-31T16:30:38;16.53;;;7.30;;
13435;SDS011;6790;49.520;8.504;2022-10-31T16:36:30;14.30;;;7.17;;
13435;SDS011;6790;49.520;8.504;2022-10-31T16:39:00;16.83;;;8.67;;
13435;SDS011;6790;49.520;8.504;2022-10-31T16:41:25;14.37;;;8.83;;
13435;SDS011;6790;49.520;8.504;2022-10-31T16:43:52;12.03;;;8.97;;
13435;SDS011;6790;49.520;8.504;2022-10-31T16:46:25;16.53;;;8.73;;
13435;SDS011;6790;49.520;8.504;2022-10-31T16:48:54;15.93;;;9.87;;
13435;SDS011;6790;49.520;8.504;2022-10-31T16:51:20;15.67;;;10.03;;
13435;SDS011;6790;49.520;8.504;2022-10-31T16:53:50;20.80;;;14.80;;
13435;SDS011;6790;49.520;8.504;2022-10-31T16:56:18;67.90;;;43.03;;
13435;SDS011;6790;49.520;8.504;2022-10-31T16:58:52;17.63;;;13.10;;
13435;SDS011;6790;49.520;8.504;2022-10-31T17:01:18;16.53;;;10.07;;
13435;SDS011;6790;49.520;8.504;2022-10-31T17:03:44;20.40;;;9.47;;
13435;SDS011;6790;49.520;8.504;2022-10-31T17:06:12;16.87;;;8.63;;
13435;SDS011;6790;49.520;8.504;2022-10-31T17:08:39;14.57;;;9.57;;
13435;SDS011;6790;49.520;8.504;2022-10-31T17:11:05;15.87;;;9.80;;
13435;SDS011;6790;49.520;8.504;2022-10-31T17:13:36;31.57;;;20.63;;
13435;SDS011;6790;49.520;8.504;2022-10-31T17:16:03;21.27;;;13.60;;
13435;SDS011;6790;49.520;8.504;2022-10-31T17:18:29;13.83;;;10.10;;
13435;SDS011;6790;49.520;8.504;2022-10-31T17:20:55;16.07;;;9.00;;
13435;SDS011;6790;49.520;8.504;2022-10-31T17:23:23;12.07;;;8.73;;
13435;SDS011;6790;49.520;8.504;2022-10-31T17:25:49;17.73;;;11.13;;
13435;SDS011;6790;49.520;8.504;2022-10-31T17:28:15;25.53;;;13.77;;
13435;SDS011;6790;49.520;8.504;2022-10-31T17:30:40;21.50;;;13.23;;
13435;SDS011;6790;49.520;8.504;2022-10-31T17:33:14;23.40;;;15.83;;
13435;SDS011;6790;49.520;8.504;2022-10-31T17:35:44;20.80;;;13.77;;
13435;SDS011;6790;49.520;8.504;2022-10-31T17:38:10;22.73;;;13.23;;
13435;SDS011;6790;49.520;8.504;2022-10-31T17:40:37;17.13;;;11.77;;
13435;SDS011;6790;49.520;8.504;2022-10-31T17:43:04;21.60;;;12.77;;
13435;SDS011;6790;49.520;8.504;2022-10-31T17:45:30;23.80;;;12.90;;
13435;SDS011;6790;49.520;8.504;2022-10-31T17:47:55;23.03;;;12.27;;
13435;SDS011;6790;49.520;8.504;2022-10-31T17:50:22;17.17;;;12.23;;
13435;SDS011;6790;49.520;8.504;2022-10-31T17:52:50;20.07;;;12.50;;
13435;SDS011;6790;49.520;8.504;2022-10-31T17:55:16;18.73;;;12.07;;
13435;SDS011;6790;49.520;8.504;2022-10-31T17:57:42;26.13;;;12.00;;
13435;SDS011;6790;49.520;8.504;2022-10-31T18:00:10;25.47;;;15.73;;
13435;SDS011;6790;49.520;8.504;2022-10-31T18:02:40;32.27;;;20.60;;
13435;SDS011;6790;49.520;8.504;2022-10-31T18:05:06;29.63;;;18.57;;